Terminal Aerodrome Forecast
Issued by NWS

Home | Current Version | Previous Version | Text Only | Print | Product List | Glossary On
Versions: 1 2 3 4 5 6 7 8 9 10 11 12 13 14 15 16 17 18 19 20 21 22 23 24 25 26 27 28 29 30 31 32
000
FTUS45 KPSR 261200 AAB
TAFPHX
TAF AMD
KPHX 261200Z 2612/2712 15006KT P6SM VCSH SCT040 BKN060 OVC100
      TEMPO 2612/2613 VRB18G30KT 3SM TSRA SCT020 OVC050CB
     FM261600 24008KT P6SM VCSH SCT050 BKN070
     FM261900 27016G24KT P6SM SCT050 SCT070 BKN120
     FM270200 29012KT P6SM FEW080 SCT120
     FM270600 VRB05KT P6SM FEW150=

USA.gov is the U.S. government's official web portal to all federal, state and local government web resources and services.